Time;durP1;ratioP1;P1;durP2;ratioP2;P2;SDS_P1;SDS_P2;PMS_P1;PMS_P2;Temp;Humidity;BMP_temperature;BMP_pressure;BME280_temperature;BME280_humidity;BME280_pressure;Samples;Min_cycle;Max_cycle;Signal;HPM_P1;HPM_P2
2022/08/19 00:00:33;;;;;;;6.33;5.93;;;;;;;19.39;100.00;95822.16;5031608;28;101716;-60
2022/08/19 00:03:02;;;;;;;6.60;6.00;;;;;;;19.39;100.00;95819.47;5031356;28;102541;-60
2022/08/19 00:05:29;;;;;;;6.27;5.87;;;;;;;19.42;100.00;95821.53;5063082;27;105913;-60
2022/08/19 00:07:56;;;;;;;6.77;6.20;;;;;;;19.40;100.00;95818.38;5031557;28;101781;-60
2022/08/19 00:10:24;;;;;;;6.00;5.60;;;;;;;19.45;100.00;95834.41;5030171;28;105197;-60
2022/08/19 00:12:51;;;;;;;6.30;5.70;;;;;;;19.43;100.00;95836.59;5034166;27;102587;-60
2022/08/19 00:15:22;;;;;;;6.40;5.90;;;;;;;19.46;100.00;95835.97;5030959;28;102402;-60
2022/08/19 00:17:49;;;;;;;6.40;5.90;;;;;;;19.42;100.00;95835.84;5029294;28;106208;-60
2022/08/19 00:20:22;;;;;;;6.53;5.93;;;;;;;19.46;100.00;95835.97;5031278;28;101856;-60
2022/08/19 00:22:50;;;;;;;6.17;5.67;;;;;;;19.47;100.00;95822.19;5030910;28;102454;-60
2022/08/19 00:25:18;;;;;;;5.60;5.17;;;;;;;19.48;100.00;95823.75;5030645;27;102488;-60
2022/08/19 00:27:45;;;;;;;6.23;5.83;;;;;;;19.50;100.00;95821.53;5031203;28;101847;-60
2022/08/19 00:30:12;;;;;;;6.30;5.80;;;;;;;19.32;100.00;95811.88;5031031;27;102411;-60
2022/08/19 00:32:40;;;;;;;6.57;5.97;;;;;;;19.25;100.00;95802.69;5029256;28;105363;-60
2022/08/19 00:35:09;;;;;;;6.00;5.60;;;;;;;19.30;100.00;95799.84;5034170;28;101970;-60
2022/08/19 00:37:37;;;;;;;6.53;6.03;;;;;;;19.28;100.00;95797.44;5030231;28;102636;-60
2022/08/19 00:40:06;;;;;;;6.10;5.70;;;;;;;19.06;100.00;95792.19;5030680;28;101861;-60
2022/08/19 00:42:34;;;;;;;6.53;6.03;;;;;;;18.94;100.00;95786.66;5029500;28;105324;-60
2022/08/19 00:45:01;;;;;;;6.60;6.10;;;;;;;18.96;100.00;95780.97;5030028;28;102668;-60
2022/08/19 00:47:28;;;;;;;6.70;6.20;;;;;;;18.92;100.00;95785.41;5030856;28;101822;-60
2022/08/19 00:49:58;;;;;;;6.87;6.37;;;;;;;19.01;100.00;95780.81;5030563;28;102439;-60
2022/08/19 00:52:29;;;;;;;7.13;6.63;;;;;;;19.02;100.00;95788.56;5028780;28;104169;-60
2022/08/19 00:54:59;;;;;;;8.13;6.53;;;;;;;19.05;100.00;95796.00;5034212;27;101728;-60
2022/08/19 00:57:31;;;;;;;6.97;6.40;;;;;;;19.04;100.00;95796.31;5029972;27;103098;-60
2022/08/19 01:00:00;;;;;;;7.00;6.47;;;;;;;19.04;100.00;95794.44;5029946;27;101971;-60
2022/08/19 01:02:28;;;;;;;6.63;6.13;;;;;;;19.11;100.00;95799.31;5030578;28;102368;-60
2022/08/19 01:04:55;;;;;;;6.77;6.27;;;;;;;19.13;100.00;95794.44;5028824;28;102660;-60
2022/08/19 01:07:22;;;;;;;6.83;6.23;;;;;;;19.11;100.00;95791.25;5029041;28;101995;-60
2022/08/19 01:09:50;;;;;;;6.63;6.10;;;;;;;19.05;100.00;95792.50;5029216;28;105568;-60
2022/08/19 01:12:19;;;;;;;7.40;6.80;;;;;;;19.08;100.00;95811.53;5028435;28;105558;-60
2022/08/19 01:14:47;;;;;;;6.40;5.90;;;;;;;19.16;100.00;95812.66;5029963;28;102450;-60
2022/08/19 01:17:16;;;;;;;7.00;6.40;;;;;;;19.25;100.00;95824.25;5033075;28;102228;-60
2022/08/19 01:19:44;;;;;;;6.27;5.80;;;;;;;19.29;100.00;95841.38;5030573;28;102093;-60
2022/08/19 01:22:18;;;;;;;5.13;4.83;;;;;;;19.33;100.00;95845.81;5028642;28;105507;-60
2022/08/19 01:24:46;;;;;;;5.67;5.27;;;;;;;19.38;100.00;95834.06;5028565;28;105805;-60
2022/08/19 01:27:13;;;;;;;6.50;6.00;;;;;;;19.31;100.00;95839.16;5028698;28;101950;-60
2022/08/19 01:29:43;;;;;;;6.67;6.17;;;;;;;19.18;100.00;95821.22;5028716;28;105500;-60
2022/08/19 01:32:13;;;;;;;7.00;6.40;;;;;;;19.14;100.00;95814.88;5029388;28;101727;-60
2022/08/19 01:34:40;;;;;;;6.90;6.40;;;;;;;19.24;100.00;95815.38;5062545;27;101850;-60
2022/08/19 01:37:11;;;;;;;6.77;6.20;;;;;;;19.19;100.00;95810.09;5029988;28;102374;-60
2022/08/19 01:39:39;;;;;;;7.30;6.70;;;;;;;19.25;100.00;95829.66;5033187;28;102759;-60
2022/08/19 01:42:10;;;;;;;5.37;4.97;;;;;;;19.32;100.00;95849.63;5028645;28;105198;-60
2022/08/19 01:44:38;;;;;;;6.03;5.53;;;;;;;19.38;100.00;95851.06;5027995;28;104220;-60
2022/08/19 01:47:06;;;;;;;5.50;5.10;;;;;;;19.45;100.00;95845.19;5029830;27;101988;-60
2022/08/19 01:49:33;;;;;;;6.40;5.87;;;;;;;19.45;100.00;95845.19;5029939;28;102378;-60
2022/08/19 01:52:01;;;;;;;6.33;5.83;;;;;;;19.42;100.00;95840.41;5027933;28;105846;-60
2022/08/19 01:54:29;;;;;;;5.20;4.83;;;;;;;19.46;100.00;95841.38;5029864;28;102091;-60
2022/08/19 01:57:01;;;;;;;4.50;4.20;;;;;;;19.45;100.00;95847.88;5028247;28;104043;-60
2022/08/19 01:59:31;;;;;;;3.87;3.67;;;;;;;19.49;100.00;95851.50;5028858;28;102620;-60
2022/08/19 02:01:59;;;;;;;3.50;3.20;;;;;;;19.51;100.00;95849.31;5031785;28;102144;-60
2022/08/19 02:04:26;;;;;;;3.50;3.20;;;;;;;19.55;100.00;95852.94;5029193;28;101785;-60
2022/08/19 02:06:54;;;;;;;2.17;2.07;;;;;;;19.56;100.00;95851.84;5029609;28;101888;-60
2022/08/19 02:09:21;;;;;;;1.80;1.70;;;;;;;19.58;100.00;95841.50;5028649;28;103677;-60
2022/08/19 02:11:48;;;;;;;1.93;1.83;;;;;;;19.59;100.00;95835.00;5027588;28;105645;-60
2022/08/19 02:14:15;;;;;;;1.50;1.43;;;;;;;19.60;100.00;95837.38;5029683;28;101694;-60
2022/08/19 02:16:44;;;;;;;1.70;1.60;;;;;;;19.63;100.00;95838.66;5032081;27;102169;-60
2022/08/19 02:19:11;;;;;;;2.33;1.43;;;;;;;19.63;100.00;95834.03;5032669;28;102828;-60
2022/08/19 02:21:39;;;;;;;1.93;1.63;;;;;;;19.63;100.00;95838.66;5033219;28;101896;-60
2022/08/19 02:24:06;;;;;;;1.67;1.60;;;;;;;19.60;100.00;95833.88;5035729;28;102388;-60
2022/08/19 02:26:33;;;;;;;2.13;1.83;;;;;;;19.59;100.00;95824.22;5031402;28;101992;-60
2022/08/19 02:29:00;;;;;;;1.97;1.87;;;;;;;19.58;100.00;95823.44;5033080;28;102674;-60
2022/08/19 02:31:28;;;;;;;1.77;1.67;;;;;;;19.58;100.00;95817.22;5032473;28;103172;-60
2022/08/19 02:33:58;;;;;;;1.60;1.60;;;;;;;19.57;100.00;95812.97;5031503;28;101929;-60
2022/08/19 02:36:26;;;;;;;1.70;1.60;;;;;;;19.58;100.00;95830.72;5032735;28;102379;-60
2022/08/19 02:38:53;;;;;;;1.80;1.70;;;;;;;19.52;100.00;95826.59;5030675;28;105455;-60
2022/08/19 02:41:22;;;;;;;1.83;1.73;;;;;;;19.51;100.00;95827.72;5031364;28;101923;-60
2022/08/19 02:43:50;;;;;;;2.00;1.90;;;;;;;19.50;100.00;95826.91;5031366;28;106006;-60
2022/08/19 02:46:21;;;;;;;1.80;1.70;;;;;;;19.50;100.00;95821.53;5033713;28;101836;-60
2022/08/19 02:48:49;;;;;;;1.70;1.60;;;;;;;19.55;100.00;95813.28;5033113;27;102228;-60
2022/08/19 02:51:22;;;;;;;1.70;1.60;;;;;;;19.55;100.00;95821.38;5031958;28;102854;-60
2022/08/19 02:53:50;;;;;;;1.77;1.67;;;;;;;19.57;100.00;95812.97;5031185;28;101815;-60
2022/08/19 02:56:18;;;;;;;1.67;1.60;;;;;;;19.54;100.00;95821.69;5032424;28;103965;-60
2022/08/19 02:58:46;;;;;;;1.57;1.47;;;;;;;19.57;100.00;95816.44;5030372;28;105898;-60
2022/08/19 03:01:21;;;;;;;1.63;1.57;;;;;;;19.58;100.00;95817.22;5031010;28;101974;-60
2022/08/19 03:03:49;;;;;;;1.87;1.77;;;;;;;19.58;100.00;95814.53;5031157;28;105389;-60
2022/08/19 03:06:17;;;;;;;2.10;2.00;;;;;;;19.56;100.00;95806.75;5033709;28;105919;-60
2022/08/19 03:08:48;;;;;;;1.80;1.70;;;;;;;19.56;100.00;95811.38;5032667;28;102375;-60
2022/08/19 03:11:18;;;;;;;1.90;1.80;;;;;;;19.57;100.00;95815.66;5030212;28;105827;-60
2022/08/19 03:13:45;;;;;;;1.70;1.60;;;;;;;19.57;100.00;95802.94;5032424;27;101805;-60
2022/08/19 03:16:13;;;;;;;1.63;1.53;;;;;;;19.57;100.00;95821.06;5030717;28;105352;-60
2022/08/19 03:18:40;;;;;;;1.70;1.60;;;;;;;19.60;100.00;95823.91;5030341;28;105592;-60
2022/08/19 03:21:08;;;;;;;2.43;1.60;;;;;;;19.63;100.00;95830.56;5032186;28;101849;-60
2022/08/19 03:23:36;;;;;;;1.60;1.50;;;;;;;19.64;100.00;95832.94;5031979;28;102874;-60
2022/08/19 03:26:06;;;;;;;1.80;1.70;;;;;;;19.62;100.00;95834.38;5031462;28;103219;-60
2022/08/19 03:28:35;;;;;;;1.43;1.43;;;;;;;19.55;100.00;95834.84;5034674;27;101716;-60
2022/08/19 03:31:04;;;;;;;1.67;1.57;;;;;;;19.58;100.00;95839.63;5031298;28;104533;-60
2022/08/19 03:33:33;;;;;;;1.60;1.60;;;;;;;19.58;100.00;95844.22;5030565;28;102026;-60
2022/08/19 03:36:09;;;;;;;1.60;1.60;;;;;;;19.64;100.00;95848.31;5031846;28;103004;-60
2022/08/19 03:38:38;;;;;;;1.70;1.60;;;;;;;19.62;100.00;95858.66;5029797;28;105682;-60
2022/08/19 03:41:11;;;;;;;1.67;1.57;;;;;;;19.62;100.00;95845.94;5031605;28;102215;-60
2022/08/19 03:43:39;;;;;;;2.07;1.67;;;;;;;19.59;100.00;95848.47;5032108;28;102314;-60
2022/08/19 03:46:08;;;;;;;1.63;1.53;;;;;;;19.61;100.00;95854.38;5030687;28;102615;-60
2022/08/19 03:48:36;;;;;;;1.70;1.60;;;;;;;19.59;100.00;95848.47;5032113;28;101923;-60
2022/08/19 03:51:04;;;;;;;1.60;1.50;;;;;;;19.61;100.00;95843.59;5034505;28;102294;-60
2022/08/19 03:53:34;;;;;;;1.87;1.43;;;;;;;19.59;100.00;95835.81;5031422;28;101844;-60
2022/08/19 03:56:01;;;;;;;1.30;1.30;;;;;;;19.63;100.00;95835.94;5030065;28;105614;-60
2022/08/19 03:58:31;;;;;;;2.10;1.40;;;;;;;19.56;100.00;95831.03;5030607;28;103227;-60
2022/08/19 04:00:57;;;;;;;1.40;1.30;;;;;;;19.62;100.00;95840.53;5030052;28;101861;-60
2022/08/19 04:03:26;;;;;;;1.43;1.40;;;;;;;19.66;100.00;95832.59;5031647;28;102984;-60
2022/08/19 04:05:54;;;;;;;1.40;1.30;;;;;;;19.67;100.00;95837.69;5029167;28;106805;-60
2022/08/19 04:08:22;;;;;;;1.53;1.40;;;;;;;19.63;100.00;95830.56;5064060;27;101854;-60
2022/08/19 04:10:50;;;;;;;1.37;1.30;;;;;;;19.61;100.00;95841.66;5063906;27;105162;-60
2022/08/19 04:13:18;;;;;;;1.70;1.60;;;;;;;19.61;100.00;95840.88;5066850;27;105401;-60
2022/08/19 04:15:47;;;;;;;1.20;1.20;;;;;;;19.60;100.00;95831.19;5029542;28;103668;-60
2022/08/19 04:18:15;;;;;;;1.40;1.40;;;;;;;19.65;100.00;95833.72;5029324;28;105955;-60
2022/08/19 04:20:44;;;;;;;1.70;1.60;;;;;;;19.66;100.00;95846.09;5031358;28;101882;-60
2022/08/19 04:23:11;;;;;;;1.87;1.77;;;;;;;19.66;100.00;95843.38;5030954;28;102340;-60
2022/08/19 04:25:40;;;;;;;1.60;1.50;;;;;;;19.55;100.00;95844.84;5029123;28;105672;-60
2022/08/19 04:28:09;;;;;;;1.50;1.50;;;;;;;19.55;100.00;95836.75;5029564;28;102371;-60
2022/08/19 04:30:41;;;;;;;1.63;1.53;;;;;;;19.60;100.00;95848.16;5031012;28;102573;-60
2022/08/19 04:33:10;;;;;;;1.50;1.40;;;;;;;19.64;100.00;95856.41;5030237;28;103209;-60
2022/08/19 04:35:39;;;;;;;1.37;1.37;;;;;;;19.69;100.00;95856.25;5034236;28;101695;-60
2022/08/19 04:38:07;;;;;;;1.10;1.10;;;;;;;19.73;100.00;95859.91;5028628;28;105472;-60
2022/08/19 04:43:19;;;;;;;1.67;1.57;;;;;;;19.75;100.00;95860.34;5030865;28;102456;-60
2022/08/19 04:45:48;;;;;;;1.93;1.83;;;;;;;19.76;100.00;95878.13;5029017;28;105468;-60
2022/08/19 04:48:17;;;;;;;1.77;1.67;;;;;;;19.78;100.00;95875.91;5029658;27;101777;-60
2022/08/19 04:50:45;;;;;;;1.77;1.67;;;;;;;19.79;100.00;95878.28;5030947;27;101933;-60
2022/08/19 04:53:12;;;;;;;1.80;1.70;;;;;;;19.81;100.00;95876.06;5029994;28;102646;-60
2022/08/19 04:55:41;;;;;;;1.77;1.67;;;;;;;19.78;100.00;95881.31;5032807;28;101929;-60
2022/08/19 04:58:08;;;;;;;1.70;1.60;;;;;;;19.81;100.00;95876.06;5029261;28;105104;-60
2022/08/19 05:00:38;;;;;;;2.03;1.93;;;;;;;19.79;100.00;95877.50;5030698;28;101780;-60
2022/08/19 05:03:05;;;;;;;2.00;1.90;;;;;;;19.83;100.00;95875.75;5029226;28;106486;-60
2022/08/19 05:05:34;;;;;;;1.63;1.53;;;;;;;19.83;100.00;95879.22;5028614;28;105382;-60
2022/08/19 05:08:01;;;;;;;1.77;1.67;;;;;;;19.82;100.00;95876.84;5030112;28;102070;-60
2022/08/19 05:10:30;;;;;;;1.67;1.50;;;;;;;19.82;100.00;95866.06;5029235;28;105709;-60
2022/08/19 05:12:57;;;;;;;2.23;1.73;;;;;;;19.85;100.00;95879.72;5029840;28;103143;-60
2022/08/19 05:15:24;;;;;;;1.87;1.77;;;;;;;19.86;100.00;95878.59;5029966;28;101875;-60
2022/08/19 05:23:23;;;;;;;2.37;2.20;;;;;;;19.84;100.00;95869.25;5030359;28;102442;-60
2022/08/19 05:25:51;;;;;;;2.10;2.00;;;;;;;19.86;100.00;95861.59;5029788;27;102558;-60
2022/08/19 05:28:18;;;;;;;2.90;2.10;;;;;;;19.88;100.00;95857.47;5035463;27;101983;-60
2022/08/19 05:30:45;;;;;;;2.27;2.17;;;;;;;19.86;100.00;95864.31;5048501;27;105109;-60
2022/08/19 05:33:13;;;;;;;3.77;2.40;;;;;;;19.75;100.00;95861.16;5048111;27;105899;-60
2022/08/19 05:35:43;;;;;;;2.90;2.10;;;;;;;19.70;100.00;95865.91;5049346;27;101850;-60
2022/08/19 05:38:12;;;;;;;2.60;2.40;;;;;;;19.75;100.00;95861.16;5048612;27;103514;-60
2022/08/19 05:40:41;;;;;;;3.80;1.90;;;;;;;19.83;100.00;95863.03;5051659;27;106920;-64
2022/08/19 05:43:09;;;;;;;3.63;3.17;;;;;;;19.91;100.00;95854.16;5048408;27;105459;-61
2022/08/19 05:45:45;;;;;;;4.23;2.93;;;;;;;20.09;100.00;95865.69;5045329;27;104639;-61
2022/08/19 05:48:12;;;;;;;2.93;2.63;;;;;;;20.11;100.00;95864.25;5049082;27;102090;-61
2022/08/19 05:50:42;;;;;;;2.90;2.70;;;;;;;20.24;100.00;95873.28;5051183;27;103869;-61
2022/08/19 05:53:10;;;;;;;2.67;2.47;;;;;;;20.28;100.00;95876.91;5053213;27;104512;-61
2022/08/19 05:55:42;;;;;;;2.57;2.37;;;;;;;20.36;100.00;95878.78;5054019;27;102166;-61
2022/08/19 05:58:09;;;;;;;2.80;2.40;;;;;;;20.44;100.00;95881.44;5053411;27;102286;-62
2022/08/19 06:00:37;;;;;;;2.30;2.20;;;;;;;20.47;100.00;95886.22;5053164;27;104739;-61
2022/08/19 06:03:04;;;;;;;2.90;2.70;;;;;;;20.37;100.00;95881.16;5057186;27;102238;-61
2022/08/19 06:05:43;;;;;;;2.60;2.40;;;;;;;20.30;100.00;95885.47;5053058;27;102674;-61
2022/08/19 06:08:10;;;;;;;3.23;2.93;;;;;;;20.26;100.00;95887.22;5054157;27;101972;-61
2022/08/19 06:10:38;;;;;;;4.33;2.77;;;;;;;20.20;100.00;95885.81;5052372;27;105030;-61
2022/08/19 06:13:05;;;;;;;2.93;2.73;;;;;;;20.32;100.00;95880.56;5051684;27;105419;-61
2022/08/19 06:15:32;;;;;;;5.80;2.80;;;;;;;20.39;100.00;95880.84;5052158;27;102226;-61
2022/08/19 06:18:00;;;;;;;3.73;3.43;;;;;;;20.32;100.00;95875.94;5053717;27;102568;-61
2022/08/19 06:21:03;;;;;;;3.13;2.90;;;;;;;20.18;100.00;95877.25;5044604;27;103049;-61
2022/08/19 06:23:30;;;;;;;3.10;2.90;;;;;;;20.06;100.00;95875.19;5052058;27;101811;-61
2022/08/19 06:26:35;;;;;;;3.17;2.90;;;;;;;19.82;100.00;95882.25;5056475;27;102458;-61
2022/08/19 06:29:05;;;;;;;2.77;2.63;;;;;;;19.95;100.00;95881.28;5043339;27;102040;-61
2022/08/19 06:31:34;;;;;;;3.33;2.80;;;;;;;19.96;100.00;95877.47;5048757;27;104928;-62
2022/08/19 06:34:02;;;;;;;2.97;2.80;;;;;;;20.03;100.00;95881.25;5044950;27;102821;-61
2022/08/19 06:36:40;;;;;;;3.43;2.87;;;;;;;20.20;100.00;95873.13;5053325;27;101869;-61
2022/08/19 06:39:09;;;;;;;3.83;3.43;;;;;;;20.16;100.00;95876.81;5053345;27;102398;-61
2022/08/19 06:41:37;;;;;;;4.03;3.57;;;;;;;20.09;100.00;95871.91;5052392;27;103205;-60
2022/08/19 06:44:05;;;;;;;4.30;4.00;;;;;;;19.75;100.00;95866.56;5042271;27;102064;-61
2022/08/19 06:46:40;;;;;;;4.20;3.87;;;;;;;19.53;100.00;95863.25;5053219;27;102891;-61
2022/08/19 06:49:13;;;;;;;4.10;3.80;;;;;;;19.52;100.00;95862.44;5056038;27;102725;-61
2022/08/19 06:51:43;;;;;;;4.23;3.83;;;;;;;19.49;100.00;95856.91;5037279;27;102061;-60
2022/08/19 06:54:11;;;;;;;5.43;4.67;;;;;;;19.48;100.00;95849.94;5031014;28;105467;-60
2022/08/19 06:56:46;;;;;;;3.73;3.43;;;;;;;19.67;100.00;95842.28;5032834;27;101883;-61
2022/08/19 06:59:16;;;;;;;4.10;3.80;;;;;;;19.76;100.00;95837.66;5032380;28;101877;-61
2022/08/19 07:01:45;;;;;;;3.73;3.43;;;;;;;19.80;100.00;95841.31;5030942;27;103025;-61
2022/08/19 07:04:13;;;;;;;3.63;3.33;;;;;;;19.84;100.00;95844.94;5032286;27;101924;-61
2022/08/19 07:07:09;;;;;;;3.50;3.30;;;;;;;19.62;100.00;95856.72;5031048;28;105990;-60
2022/08/19 07:09:38;;;;;;;3.23;2.90;;;;;;;20.01;100.00;95866.50;5034330;28;105433;-61
2022/08/19 07:12:07;;;;;;;2.90;2.70;;;;;;;20.11;100.00;95864.25;5040394;27;102277;-61
2022/08/19 07:14:37;;;;;;;4.20;3.20;;;;;;;20.34;100.00;95857.53;5050572;27;105585;-60
2022/08/19 07:17:07;;;;;;;3.00;2.80;;;;;;;20.47;100.00;95877.31;5052494;27;101879;-60
2022/08/19 07:19:50;;;;;;;3.13;2.93;;;;;;;20.25;100.00;95882.94;5052980;27;102954;-60
2022/08/19 07:22:22;;;;;;;3.03;2.83;;;;;;;20.10;100.00;95873.47;5051901;27;103148;-61
2022/08/19 07:24:49;;;;;;;2.90;2.70;;;;;;;20.09;100.00;95871.09;5052775;27;101979;-61
2022/08/19 07:27:22;;;;;;;3.30;3.10;;;;;;;19.94;100.00;95874.31;5052659;27;102662;-61
2022/08/19 07:29:49;;;;;;;4.23;3.80;;;;;;;19.78;100.00;95884.78;5052030;27;102922;-61
2022/08/19 07:32:16;;;;;;;4.10;3.67;;;;;;;19.56;100.00;95881.50;5053565;27;102028;-61
2022/08/19 07:34:45;;;;;;;4.47;4.10;;;;;;;19.68;100.00;95887.81;5048749;27;102736;-61
2022/08/19 07:37:21;;;;;;;4.70;4.30;;;;;;;19.66;100.00;95884.66;5051021;27;101749;-61
2022/08/19 07:39:48;;;;;;;5.20;4.80;;;;;;;19.79;100.00;95882.91;5050961;27;104081;-61
2022/08/19 07:42:20;;;;;;;5.17;4.77;;;;;;;19.85;100.00;95882.41;5051765;27;102661;-61
2022/08/19 07:44:47;;;;;;;5.30;4.80;;;;;;;19.78;100.00;95887.50;5052207;27;102111;-61
2022/08/19 07:47:28;;;;;;;4.60;4.30;;;;;;;19.50;100.00;95894.34;5052058;27;102326;-61
2022/08/19 07:50:14;;;;;;;4.20;3.90;;;;;;;19.71;100.00;95897.19;5030091;28;105401;-61
2022/08/19 07:52:44;;;;;;;4.67;4.27;;;;;;;19.90;100.00;95878.75;5032103;27;101733;-61
2022/08/19 07:55:12;;;;;;;4.50;4.20;;;;;;;20.09;100.00;95863.78;5033497;28;105843;-61
2022/08/19 07:57:40;;;;;;;4.70;4.40;;;;;;;20.11;100.00;95856.16;5031859;28;101903;-61
2022/08/19 08:00:08;;;;;;;4.43;4.13;;;;;;;19.87;100.00;95879.38;5031492;28;102575;-61
2022/08/19 08:02:42;;;;;;;5.17;4.77;;;;;;;19.54;100.00;95892.59;5046420;27;102413;-61
2022/08/19 08:10:40;;;;;;;5.47;5.07;;;;;;;19.68;100.00;95887.03;5050105;27;105828;-60
2022/08/19 08:13:07;;;;;;;4.43;4.13;;;;;;;20.14;100.00;95884.41;5051234;27;102205;-61
2022/08/19 08:15:38;;;;;;;4.27;3.97;;;;;;;20.48;100.00;95895.13;5050272;27;105257;-61
2022/08/19 08:18:05;;;;;;;4.43;4.17;;;;;;;20.65;100.00;95893.13;5054763;27;102612;-60
2022/08/19 08:20:43;;;;;;;4.77;4.47;;;;;;;20.66;100.00;95900.09;5049303;27;102999;-61
2022/08/19 08:23:24;;;;;;;4.40;4.10;;;;;;;20.63;100.00;95906.16;5051096;27;103029;-61
2022/08/19 08:26:15;;;;;;;4.20;3.90;;;;;;;20.76;100.00;95901.66;5050461;27;101799;-61
2022/08/19 08:28:42;;;;;;;4.27;3.97;;;;;;;20.83;100.00;95893.81;5050188;27;105669;-60
2022/08/19 08:31:10;;;;;;;4.10;3.90;;;;;;;20.77;100.00;95887.03;5049259;27;105415;-61
2022/08/19 08:33:37;;;;;;;4.40;4.10;;;;;;;21.03;100.00;95890.41;5049277;27;101952;-61
2022/08/19 08:36:18;;;;;;;4.47;4.17;;;;;;;21.07;100.00;95886.69;5051663;27;102700;-61
2022/08/19 08:38:47;;;;;;;4.87;4.23;;;;;;;21.16;100.00;95878.53;5030822;28;103296;-61
2022/08/19 08:41:23;;;;;;;5.57;5.17;;;;;;;21.18;100.00;95881.69;5033300;28;101965;-61
2022/08/19 08:43:53;;;;;;;5.87;4.73;;;;;;;20.93;100.00;95869.94;5030627;28;102862;-61
2022/08/19 08:46:39;;;;;;;6.23;5.10;;;;;;;20.90;100.00;95870.59;5031525;27;101867;-61
2022/08/19 08:49:30;;;;;;;5.60;5.10;;;;;;;21.53;100.00;95864.84;5051494;27;102346;-61
2022/08/19 08:52:03;;;;;;;5.23;4.73;;;;;;;21.53;100.00;95885.72;5043470;27;107182;-61
2022/08/19 08:54:38;;;;;;;4.83;4.43;;;;;;;21.45;100.00;95887.38;5046215;27;102555;-61
2022/08/19 08:57:48;;;;;;;4.47;4.07;;;;;;;21.76;100.00;95881.56;5033617;27;102381;-61
2022/08/19 09:00:20;;;;;;;4.70;4.30;;;;;;;21.66;100.00;95890.06;5040641;27;102712;-61
2022/08/19 09:02:48;;;;;;;5.13;4.63;;;;;;;21.30;100.00;95885.25;5051144;27;101729;-61
2022/08/19 09:05:20;;;;;;;4.40;4.03;;;;;;;21.54;100.00;95890.81;5053186;27;102019;-61
2022/08/19 09:08:06;;;;;;;5.40;4.20;;;;;;;21.96;100.00;95896.97;5049401;27;101877;-61
2022/08/19 09:10:40;;;;;;;5.30;4.70;;;;;;;21.90;100.00;95906.44;5051129;27;102363;-61
2022/08/19 09:13:18;;;;;;;5.23;4.83;;;;;;;21.66;100.00;95907.09;5050056;27;103227;-61
2022/08/19 09:15:54;;;;;;;5.37;4.87;;;;;;;21.72;100.00;95905.00;5049105;27;101958;-60
2022/08/19 09:18:22;;;;;;;4.80;4.40;;;;;;;21.91;100.00;95905.31;5029488;28;103871;-60
2022/08/19 09:20:49;;;;;;;5.07;4.60;;;;;;;21.47;100.00;95916.81;5028642;28;105910;-60
2022/08/19 09:23:19;;;;;;;5.10;4.70;;;;;;;21.45;100.00;95905.50;5030514;28;101916;-61
2022/08/19 09:26:32;;;;;;;5.23;4.73;;;;;;;21.73;100.00;95893.03;5032434;28;102852;-61
2022/08/19 09:29:01;;;;;;;5.03;4.63;;;;;;;22.29;100.00;95884.19;5030552;28;101914;-61
2022/08/19 09:31:32;;;;;;;5.23;4.73;;;;;;;22.66;100.00;95888.56;5035685;27;105265;-61
2022/08/19 09:34:00;;;;;;;4.50;4.10;;;;;;;22.82;100.00;95884.81;5050238;27;103252;-61
2022/08/19 09:36:59;;;;;;;5.17;4.77;;;;;;;22.74;100.00;95884.94;5045637;27;102176;-61
2022/08/19 09:39:27;;;;;;;4.90;4.50;;;;;;;22.59;100.00;95878.28;5034009;27;102843;-61
2022/08/19 09:41:54;;;;;;;5.13;4.73;;;;;;;22.27;100.00;95879.09;5048681;27;102869;-61
2022/08/19 09:44:23;;;;;;;4.47;4.10;;;;;;;22.30;100.00;95878.44;5049664;27;101870;-61
2022/08/19 09:46:52;;;;;;;4.77;4.33;;;;;;;22.99;100.00;95875.66;5030090;27;104008;-62
2022/08/19 09:49:35;;;;;;;5.07;4.67;;;;;;;23.06;100.00;95882.06;5040197;27;106150;-60
2022/08/19 09:52:03;;;;;;;3.97;3.63;;;;;;;23.39;100.00;95884.66;5050728;27;102334;-61
2022/08/19 09:54:30;;;;;;;4.80;4.40;;;;;;;22.85;100.00;95891.47;5049831;27;102567;-61
2022/08/19 09:57:02;;;;;;;4.73;4.43;;;;;;;22.68;100.00;95886.28;5050243;27;102148;-60
2022/08/19 09:59:30;;;;;;;4.27;3.90;;;;;;;23.03;100.00;95879.25;5050126;27;101854;-61
2022/08/19 10:01:58;;;;;;;4.47;4.17;;;;;;;22.97;100.00;95867.06;5048130;27;105792;-60
2022/08/19 10:05:47;;;;;;;4.97;4.50;;;;;;;22.66;100.00;95866.88;5048747;27;101977;-62
2022/08/19 10:07:14;;;;;;;4.40;4.10;;;;;;;22.44;100.00;95854.53;5038498;27;104153;-62
2022/08/19 10:09:41;;;;;;;3.50;3.30;;;;;;;22.93;100.00;95855.31;5048217;27;102785;-61
2022/08/19 10:12:10;;;;;;;3.73;3.53;;;;;;;23.02;100.00;95854.06;5043231;27;102566;-61
2022/08/19 10:14:42;;;;;;;4.27;3.87;;;;;;;22.85;100.00;95859.75;5048072;27;103072;-61
2022/08/19 10:17:11;;;;;;;4.20;3.90;;;;;;;22.99;100.00;95857.47;5030013;27;102002;-61
2022/08/19 10:19:40;;;;;;;3.63;3.43;;;;;;;23.61;100.00;95859.69;5028660;28;105337;-61
2022/08/19 10:22:08;;;;;;;4.37;4.07;;;;;;;23.72;100.00;95864.31;5028841;27;102552;-61
2022/08/19 10:24:35;;;;;;;3.80;3.50;;;;;;;23.95;100.00;95864.53;5049979;27;101826;-61
2022/08/19 10:27:13;;;;;;;4.03;3.63;;;;;;;24.35;100.00;95862.53;5049897;27;102955;-61
2022/08/19 10:29:42;;;;;;;4.57;4.17;;;;;;;24.38;100.00;95876.19;5049345;27;102647;-61
2022/08/19 10:32:10;;;;;;;4.53;3.67;;;;;;;23.81;100.00;95870.34;5039384;27;103471;-61
2022/08/19 10:34:39;;;;;;;3.70;3.50;;;;;;;24.39;100.00;95866.91;5042301;27;102812;-61
2022/08/19 10:37:20;;;;;;;4.10;3.70;;;;;;;23.31;100.00;95858.44;5051560;27;101850;-60
2022/08/19 10:39:48;;;;;;;4.00;3.70;;;;;;;23.55;100.00;95856.44;5033215;28;101720;-61
2022/08/19 10:42:16;;;;;;;4.13;3.83;;;;;;;23.59;100.00;95856.56;5047901;27;105839;-61
2022/08/19 10:44:46;;;;;;;4.13;3.83;;;;;;;23.55;100.00;95845.56;5051818;27;102242;-60
2022/08/19 10:47:39;;;;;;;3.83;3.60;;;;;;;23.27;100.00;95836.63;5053213;27;102272;-60
2022/08/19 10:53:09;;;;;;;4.67;4.13;;;;;;;23.26;100.00;95828.84;5009156;28;102082;-61
2022/08/19 10:58:31;;;;;;;4.33;4.03;;;;;;;23.62;100.00;95829.50;5050443;27;102537;-60
2022/08/19 11:00:59;;;;;;;4.73;4.33;;;;;;;23.79;100.00;95822.97;5052419;27;104171;-61
2022/08/19 11:03:27;;;;;;;3.50;3.30;;;;;;;23.96;100.00;95826.19;5052384;27;102681;-61
2022/08/19 11:06:47;;;;;;;3.60;3.30;;;;;;;24.53;100.00;95822.97;5052778;27;101919;-61
2022/08/19 11:09:15;;;;;;;3.50;3.30;;;;;;;24.52;100.00;95818.66;5052763;27;102384;-61
2022/08/19 11:11:43;;;;;;;3.40;3.13;;;;;;;24.29;100.00;95814.97;5052088;27;102848;-62
2022/08/19 11:14:12;;;;;;;3.90;3.63;;;;;;;24.22;100.00;95810.16;5052666;27;102192;-61
2022/08/19 11:16:45;;;;;;;4.10;3.80;;;;;;;24.11;100.00;95803.69;5051019;27;106059;-61
2022/08/19 11:19:15;;;;;;;5.23;4.63;;;;;;;24.21;100.00;95800.44;5050750;27;105557;-61
2022/08/19 11:21:45;;;;;;;4.17;3.80;;;;;;;24.99;100.00;95794.91;5054471;27;101774;-61
2022/08/19 11:24:14;;;;;;;3.17;2.97;;;;;;;25.21;100.00;95795.00;5051269;27;102479;-61
2022/08/19 11:27:24;;;;;;;3.43;3.23;;;;;;;25.44;100.00;95784.25;5050184;27;101979;-61
2022/08/19 11:29:52;;;;;;;3.47;3.27;;;;;;;25.70;100.00;95790.59;5031054;27;102832;-61
2022/08/19 11:32:21;;;;;;;3.00;2.80;;;;;;;25.14;100.00;95789.44;5031832;27;102829;-61
2022/08/19 11:34:48;;;;;;;3.33;3.07;;;;;;;26.04;100.00;95781.50;5030755;27;101964;-61
2022/08/19 11:37:37;;;;;;;3.37;3.17;;;;;;;26.37;100.00;95784.41;5034115;27;102436;-61
2022/08/19 11:40:06;;;;;;;3.90;3.57;;;;;;;26.21;100.00;95780.25;5051762;27;102563;-61
2022/08/19 11:45:24;;;;;;;4.60;4.30;;;;;;;26.15;100.00;95789.88;5034410;27;102607;-61
2022/08/19 11:47:53;;;;;;;4.90;4.50;;;;;;;25.77;100.00;95792.66;5031606;27;101853;-61
2022/08/19 11:50:56;;;;;;;4.40;4.10;;;;;;;25.68;100.00;95792.91;5031988;28;102326;-61
2022/08/19 11:53:24;;;;;;;4.97;4.57;;;;;;;24.89;100.00;95787.28;5042270;27;102754;-61
2022/08/19 11:55:56;;;;;;;4.80;4.50;;;;;;;24.85;100.00;95778.28;5052194;27;101850;-61